Galena, Nevada Weather observations

Data are for 10 minute period ending at time listed.
 Day   Time    Ave.   Ave.  Ave.  Vector   Max.   Total    Solar   
  of    of     Air    Rel.  Wind   Wind    Wind  Precip.   Rad.    
Year   Day     Temp.  Hum.  Speed  Dir.    Gust                    
2015   (PST)    F      %     mph   deg.    mph     in.     W/m2    
------------------------------------------------------------------- 
 143   22:00   47.0    91    1.0   305      6.0    1.14       0  
 143   23:00   48.0    90    4.0    26      6.0    1.14       0  
 144    0:00   47.0    96    0.0    84      5.0    1.14       0  
 144    1:00   47.0    93    2.0   316      6.0    1.15       0  
 144    2:00   45.0    95    2.0   256      7.0    1.15       0  
 144    3:00   46.0    95    2.0   308      3.0    1.15       0  
 144    4:00   46.0    90    3.0   332      4.0    1.15       0  
 144    5:00   45.0    89    6.0   344      8.0    1.15       2  
 144    6:00   51.0    81    0.0   122      8.0    1.15     103  
 144    7:00   53.0    80    4.0    85      6.0    1.15     287  
 144    8:00   55.0    75    3.0    67      9.0    1.15     497  
 144    9:00   57.0    70    4.0    68      9.0    1.15     636  
 144   10:00   59.0    64    4.0    91     10.0    1.15     817  
 144   11:00   59.0    60    4.0    81     11.0    1.15     765  
 144   12:00   66.0    52    4.0   126      7.0    1.15     770  
 144   13:00   62.0    50    4.0    53     11.0    1.15     631  
 144   14:00   63.0    49    1.0    23     11.0    1.15     550  
 144   15:00   64.0    45    3.0   302     12.0    1.15     372  
 144   16:00   65.0    43    4.0     8     12.0    1.15     250  
 144   17:00   64.0    44    5.0    77     10.0    1.15     235  
 144   18:00   58.0    61   14.0   281     23.0    1.15      49  
 144   19:00   58.0    52    9.0   279     26.0    1.15      29  
 144   20:00   56.0    57    6.0   280     21.0    1.15      10  
 144   21:00   56.0    56    7.0   324     13.0    1.15       0  

Return to Galena, Nevada graphs page.


Western Regional Climate Center,wrcc@dri.edu